createdAt,value
2019-03-25T00:04:04.725Z,12.7
2019-03-25T00:09:27.370Z,9.5
2019-03-25T00:14:50.215Z,14
2019-03-25T00:20:12.902Z,10.3
2019-03-25T00:25:35.659Z,14.2
2019-03-25T00:30:58.375Z,13.7
2019-03-25T00:36:21.088Z,9.3
2019-03-25T00:41:43.776Z,9.6
2019-03-25T00:47:07.972Z,9.1
2019-03-25T00:52:30.646Z,10.8
2019-03-25T00:57:53.357Z,8.4
2019-03-25T01:03:16.063Z,9.9
2019-03-25T01:08:38.730Z,10.6
2019-03-25T01:14:01.544Z,10.4
2019-03-25T01:19:25.118Z,10.6
2019-03-25T01:24:48.816Z,10.5
2019-03-25T01:30:12.489Z,11.4
2019-03-25T01:35:35.132Z,11.4
2019-03-25T01:40:57.796Z,13.5
2019-03-25T01:46:20.702Z,9.1
2019-03-25T01:51:43.929Z,10.2
2019-03-25T01:57:06.579Z,10.2
2019-03-25T02:02:29.830Z,10.7
2019-03-25T02:07:52.532Z,10.7
2019-03-25T02:13:15.985Z,11.4
2019-03-25T02:18:38.671Z,11.7
2019-03-25T02:24:01.352Z,12.7
2019-03-25T02:29:24.031Z,9.6
2019-03-25T02:34:47.441Z,10.8
2019-03-25T02:40:10.194Z,12.7
2019-03-25T02:45:32.880Z,8.1
2019-03-25T02:50:55.560Z,12.4
2019-03-25T02:56:18.214Z,10.8
2019-03-25T03:01:42.029Z,14.4
2019-03-25T03:07:04.708Z,7.5
2019-03-25T03:12:27.385Z,4.6
2019-03-25T03:17:50.090Z,3.5
2019-03-25T03:23:13.850Z,3.6
2019-03-25T03:28:37.481Z,4.2
2019-03-25T03:34:00.198Z,3.9
2019-03-25T03:39:22.959Z,7.3
2019-03-25T03:44:46.602Z,6.3
2019-03-25T03:50:09.821Z,6
2019-03-25T03:55:33.491Z,5.5
2019-03-25T04:00:56.189Z,5.4
2019-03-25T04:06:20.487Z,5.9
2019-03-25T04:11:43.221Z,7.8
2019-03-25T04:17:05.942Z,5.7
2019-03-25T04:22:28.667Z,5.1
2019-03-25T04:27:51.376Z,4.5
2019-03-25T04:33:14.190Z,5.3
2019-03-25T04:38:36.907Z,6.1
2019-03-25T04:43:59.633Z,7.7
2019-03-25T04:49:22.292Z,8.3
2019-03-25T04:54:44.969Z,6.3
2019-03-25T05:00:07.619Z,6.1
2019-03-25T05:05:30.577Z,6.4
2019-03-25T05:10:53.289Z,4.7
2019-03-25T05:16:18.522Z,6.2
2019-03-25T05:21:38.652Z,4.2
2019-03-25T05:27:01.302Z,7.7
2019-03-25T05:32:23.998Z,7
2019-03-25T05:37:46.674Z,6.9
2019-03-25T05:43:09.398Z,6.2
2019-03-25T05:48:32.049Z,5.1
2019-03-25T05:53:54.705Z,4.9
2019-03-25T05:59:17.408Z,10
2019-03-25T06:04:40.120Z,10.1
2019-03-25T06:10:02.790Z,5.7
2019-03-25T06:15:25.558Z,8.5
2019-03-25T06:20:48.215Z,10
2019-03-25T06:26:10.886Z,6.7
2019-03-25T06:31:33.521Z,9.7
2019-03-25T06:36:56.164Z,7.8
2019-03-25T06:42:18.836Z,10.5
2019-03-25T06:47:41.503Z,9.8
2019-03-25T06:53:04.187Z,10.8
2019-03-25T06:58:26.873Z,11
2019-03-25T07:03:49.521Z,10.9
2019-03-25T07:09:13.096Z,11.3
2019-03-25T07:14:35.907Z,7.4
2019-03-25T07:19:58.585Z,7.8
2019-03-25T07:25:21.264Z,9.1
2019-03-25T07:30:43.982Z,13.4
2019-03-25T07:36:06.722Z,12.2
2019-03-25T07:41:29.414Z,10.8
2019-03-25T07:46:52.943Z,10.6
2019-03-25T07:52:15.678Z,10.4
2019-03-25T07:57:47.601Z,9.3
2019-03-25T08:03:02.300Z,10.4
2019-03-25T08:08:25.027Z,11
2019-03-25T08:13:48.484Z,12.5
2019-03-25T08:19:11.097Z,13.8
2019-03-25T08:24:34.185Z,8
2019-03-25T08:29:57.899Z,8.6
2019-03-25T08:35:20.565Z,7.8
2019-03-25T08:40:43.246Z,8.9
2019-03-25T08:46:05.945Z,7.6
2019-03-25T08:51:28.695Z,9.9
2019-03-25T08:56:51.388Z,9.7
2019-03-25T09:02:14.083Z,10
2019-03-25T09:07:36.819Z,5.7
2019-03-25T09:12:59.501Z,9.9
2019-03-25T09:18:22.190Z,7.1
2019-03-25T09:23:45.898Z,10.6
2019-03-25T09:29:08.593Z,5
2019-03-25T09:34:31.385Z,8.8
2019-03-25T09:39:54.151Z,8.1
2019-03-25T09:45:16.855Z,10.4
2019-03-25T09:50:39.556Z,9.1
2019-03-25T09:56:02.286Z,7.7
2019-03-25T10:01:25.014Z,8.8
2019-03-25T10:06:47.708Z,9.7
2019-03-25T10:12:10.441Z,6.8
2019-03-25T10:17:33.137Z,7.7
2019-03-25T10:22:55.911Z,6
2019-03-25T10:28:18.646Z,12.8
2019-03-25T10:33:41.827Z,7.5
2019-03-25T10:39:04.494Z,6.6
2019-03-25T10:44:27.330Z,8.8
2019-03-25T10:49:50.098Z,11.2
2019-03-25T10:55:13.241Z,9.4
2019-03-25T11:00:36.244Z,8.5
2019-03-25T11:05:58.942Z,9.9
2019-03-25T11:11:21.676Z,6.7
2019-03-25T11:16:44.352Z,4.6
2019-03-25T11:22:06.998Z,8.8
2019-03-25T11:27:29.681Z,9.7
2019-03-25T11:32:52.297Z,10.8
2019-03-25T11:38:15.026Z,6.6
2019-03-25T11:43:37.711Z,7.5
2019-03-25T11:49:01.290Z,8.6
2019-03-25T11:54:23.957Z,13.2
2019-03-25T11:59:46.647Z,5.4
2019-03-25T12:05:09.324Z,8.4
2019-03-25T12:10:32.219Z,8.7
2019-03-25T12:15:54.874Z,8.7
2019-03-25T12:21:17.612Z,10.4
2019-03-25T12:26:40.992Z,5.6
2019-03-25T12:32:04.760Z,8.4
2019-03-25T12:37:27.431Z,9.5
2019-03-25T12:42:50.512Z,9.9
2019-03-25T12:48:13.230Z,8.4
2019-03-25T12:53:35.909Z,9.8
2019-03-25T12:58:59.027Z,10.5
2019-03-25T13:04:21.942Z,5.1
2019-03-25T13:09:45.052Z,9.1
2019-03-25T13:15:08.163Z,8.2
2019-03-25T13:20:30.919Z,9.2
2019-03-25T13:25:53.730Z,8.3
2019-03-25T13:31:16.738Z,5.3
2019-03-25T13:36:39.502Z,6.8
2019-03-25T13:42:02.384Z,10.3
2019-03-25T13:47:25.114Z,8
2019-03-25T13:52:47.831Z,9
2019-03-25T13:58:12.044Z,6.9
2019-03-25T14:03:34.724Z,3.3
2019-03-25T14:08:57.477Z,4.5
2019-03-25T14:14:20.261Z,2.3
2019-03-25T14:19:42.964Z,3.7
2019-03-25T14:25:05.628Z,4.1
2019-03-25T14:30:28.314Z,4.9
2019-03-25T14:35:51.072Z,4
2019-03-25T14:41:13.972Z,5.9
2019-03-25T14:46:36.740Z,3.9
2019-03-25T14:51:59.430Z,5
2019-03-25T14:57:22.152Z,6.4
2019-03-25T15:02:44.931Z,4.2
2019-03-25T15:08:07.577Z,5.8
2019-03-25T15:13:30.734Z,5.1
2019-03-25T15:18:53.377Z,5.6
2019-03-25T15:24:16.074Z,4.8
2019-03-25T15:29:39.597Z,7
2019-03-25T15:35:02.194Z,4.9
2019-03-25T15:40:25.128Z,5.9
2019-03-25T15:45:49.198Z,7.9
2019-03-25T15:51:12.852Z,6.8
2019-03-25T15:56:35.582Z,6.8
2019-03-25T16:01:58.317Z,6
2019-03-25T16:07:20.987Z,8.4
2019-03-25T16:12:43.703Z,7
2019-03-25T16:18:06.374Z,9.2
2019-03-25T16:23:29.059Z,7.2
2019-03-25T16:28:51.754Z,7.9
2019-03-25T16:34:15.207Z,6.9
2019-03-25T16:39:37.929Z,5.6
2019-03-25T16:45:00.580Z,9.3
2019-03-25T16:50:23.304Z,8.3
2019-03-25T16:55:45.926Z,6.2
2019-03-25T17:01:10.098Z,4.3
2019-03-25T17:06:31.249Z,6.5
2019-03-25T17:11:54.400Z,7.3
2019-03-25T17:17:17.081Z,4.2
2019-03-25T17:22:39.792Z,5.3
2019-03-25T17:28:02.532Z,8.1
2019-03-25T17:33:25.205Z,5
2019-03-25T17:38:47.941Z,13.5
2019-03-25T17:44:10.591Z,5.5
2019-03-25T17:49:33.346Z,7.4
2019-03-25T17:54:55.996Z,4.5
2019-03-25T18:00:18.801Z,7.8
2019-03-25T18:05:41.433Z,6.8
2019-03-25T18:11:04.103Z,6.5
2019-03-25T18:16:30.285Z,7.2
2019-03-25T18:21:52.947Z,6.2
2019-03-25T18:27:16.428Z,8.8
2019-03-25T18:32:39.114Z,6.9
2019-03-25T18:38:01.848Z,8.9
2019-03-25T18:43:26.503Z,6.9
2019-03-25T18:48:49.220Z,9.9
2019-03-25T18:54:11.877Z,7
2019-03-25T18:59:34.716Z,9.1
2019-03-25T19:04:57.609Z,8.2
2019-03-25T19:10:20.443Z,9.9
2019-03-25T19:15:44.198Z,8.7
2019-03-25T19:21:07.053Z,6.6
2019-03-25T19:26:29.990Z,10.8
2019-03-25T19:31:52.854Z,11.9
2019-03-25T19:37:16.665Z,13.2
2019-03-25T19:42:39.442Z,11.4
2019-03-25T19:48:02.177Z,10.2
2019-03-25T19:53:24.904Z,8.2
2019-03-25T19:58:47.697Z,11.6
2019-03-25T20:04:10.325Z,9
2019-03-25T20:09:33.132Z,12.9
2019-03-25T20:14:56.027Z,10.3
2019-03-25T20:20:20.011Z,9.5
2019-03-25T20:25:42.758Z,13
2019-03-25T20:31:05.542Z,7.1
2019-03-25T20:36:28.318Z,11.1
2019-03-25T20:41:51.016Z,12.7
2019-03-25T20:47:14.133Z,7.8
2019-03-25T20:52:36.836Z,11.7
2019-03-25T20:57:59.436Z,10.6
2019-03-25T21:03:22.138Z,23.299999
2019-03-25T21:08:44.868Z,10.8
2019-03-25T21:14:07.653Z,9
2019-03-25T21:19:30.520Z,13.5
2019-03-25T21:24:53.218Z,13.7
2019-03-25T21:30:16.016Z,17.200001
2019-03-25T21:35:38.683Z,13.3
2019-03-25T21:41:01.454Z,17.9
2019-03-25T21:46:24.148Z,13.8
2019-03-25T21:51:47.761Z,13
2019-03-25T21:57:10.740Z,16.9
2019-03-25T22:02:33.409Z,19.4
2019-03-25T22:07:56.101Z,13.3
2019-03-25T22:13:18.841Z,16.9
2019-03-25T22:18:41.555Z,19.799999
2019-03-25T22:24:04.725Z,15.3
2019-03-25T22:29:27.409Z,15.4
2019-03-25T22:34:50.245Z,16.4
2019-03-25T22:40:12.905Z,18.5
2019-03-25T22:45:35.585Z,23.6
2019-03-25T22:50:58.664Z,19.299999
2019-03-25T22:56:21.894Z,17.1
2019-03-25T23:01:44.617Z,19.200001
2019-03-25T23:07:07.256Z,22.700001
2019-03-25T23:12:29.916Z,19.700001
2019-03-25T23:17:52.538Z,27.200001
2019-03-25T23:23:16.912Z,21.9
2019-03-25T23:28:39.608Z,20.1
2019-03-25T23:34:02.352Z,27
2019-03-25T23:39:25.356Z,20.4
2019-03-25T23:44:47.882Z,20.9
2019-03-25T23:50:10.646Z,29.799999
2019-03-25T23:55:33.304Z,24.299999
